• Join FlightAware (Why Join?)
  • Login
  • US Flag 
07:01PM EDT


 

Airport Tracker/Info


-or-


 

Live Flight TrackerFlight Track Log ✈ EJA583 ✈ 14-Jul-2013 ✈ KVNY - KIWA

Flight Track Log - Related Links

Times and Time Zones

All times are in EDT time to prevent confusion due to time zone crossing. See the EJA583 flight status page for this flight to view local times or setup timezone preferences in your user account.

Time Position Orientation Groundspeed Altitude Reporting Facility
EDT Latitude Longitude Course Direction KTS MPH feet Rate Location/Type
04:58PM 34.1814 -118.4856 39° Northeast 178 205 35,000  Level Los Angeles Center
04:59PM 34.1450 -118.4497 141° Southeast 211 243 3,500 -13,440 Descending Los Angeles Center
05:00PM 34.1831 -118.3925 51° Northeast 246 283 7,300 3,120 Climbing Los Angeles Center
05:02PM 34.2458 -118.4342 331° Northwest 258 297 10,100 2,220 Climbing Los Angeles Center
05:03PM 34.3217 -118.4622 343° North 294 338 12,400 1,740 Climbing Los Angeles Center
05:04PM 34.4604 -118.3063 39° Northeast  Level FlightAware Approximate
05:04PM 34.4306 -118.4417 North 346 398 14,100  Level Los Angeles Center
05:05PM 34.4944 -118.3461 51° Northeast 363 418 15,700 1,980 Climbing Los Angeles Center
05:06PM 34.5233 -118.2358 72° East 352 405 18,200 2,580 Climbing Los Angeles Center
05:07PM 34.4933 -118.0953 104° East 332 382 21,600 2,100 Climbing Los Angeles Center
05:08PM 34.4719 -117.9850 103° East 336 387 23,000 1,200 Climbing Los Angeles Center
05:09PM 34.4436 -117.8372 103° East 374 430 24,200 1,020 Climbing Los Angeles Center
05:10PM 34.4172 -117.7108 104° East 387 445 25,200 1,200 Climbing Los Angeles Center
05:11PM 34.3900 -117.5842 105° East 391 450 26,700 1,740 Climbing Los Angeles Center
05:12PM 34.3653 -117.4697 105° East 378 435 28,800 2,040 Climbing Los Angeles Center
05:13PM 34.3361 -117.3328 104° East 353 406 31,000 1,740 Climbing Los Angeles Center
05:14PM 34.3086 -117.2150 106° East 359 413 32,400 1,380 Climbing Los Angeles Center
05:15PM 34.2719 -117.0886 109° East 380 437 33,900 1,200 Climbing Los Angeles Center
05:16PM 34.2403 -116.9669 107° East 381 438 34,900 480 Climbing Los Angeles Center
05:17PM 34.2075 -116.8456 108° East 382 440 35,000  Climbing Los Angeles Center
05:18PM 34.1733 -116.7233 109° East 383 441 35,000  Level Los Angeles Center
05:20PM 34.1394 -116.6025 109° East 382 440 35,000  Level Los Angeles Center
05:21PM 34.0997 -116.4589 108° East 373 429 35,000  Level Los Angeles Center
05:22PM 34.0592 -116.3372 112° Southeast 385 443 35,000  Level Los Angeles Center
05:23PM 34.0236 -116.2186 110° East 378 435 35,000  Level Los Angeles Center
05:24PM 33.9892 -116.1006 109° East 374 430 35,000  Level Los Angeles Center
05:25PM 33.9528 -115.9822 110° East 375 432 35,000  Level Los Angeles Center
05:26PM 33.9169 -115.8617 110° East 379 436 35,000  Level Los Angeles Center
05:27PM 33.8739 -115.7178 110° East 380 437 35,000  Level Los Angeles Center
05:28PM 33.8408 -115.5983 108° East 377 434 35,000  Level Los Angeles Center
05:29PM 33.8072 -115.4775 108° East 378 435 35,000  Level Los Angeles Center
05:30PM 33.7756 -115.3578 108° East 377 434 35,000  Level Los Angeles Center
05:31PM 33.7433 -115.2358 108° East 381 438 35,000  Level Los Angeles Center
05:32PM 33.7103 -115.1167 108° East 379 436 35,000 -60 Level Los Angeles Center
05:33PM 33.6672 -114.9753 110° East 376 433 34,900 -720 Descending Los Angeles Center
05:34PM 33.6272 -114.8547 112° Southeast 391 450 33,600 -1,500 Descending Los Angeles Center
05:35PM 33.5811 -114.7264 113° Southeast 417 480 31,800 -1,620 Descending Los Angeles Center
05:36PM 33.5336 -114.5972 114° Southeast 423 487 30,300 -1,500 Descending Los Angeles Center
05:37PM 33.4911 -114.4694 112° Southeast 415 478 28,700 -2,040 Descending Los Angeles Center
05:38PM 33.4378 -114.3239 114° Southeast 417 480 26,100 -1,800 Descending Albuquerque Center
05:39PM 33.3911 -114.1978 114° Southeast 417 480 25,000 -540 Descending Albuquerque Center
05:40PM 33.3625 -114.0725 105° East 398 458 25,000  Level Albuquerque Center
05:41PM 33.3489 -113.9428 97° East 392 451 25,000 -240 Level Albuquerque Center
05:42PM 33.3400 -113.8125 95° East 393 452 24,600 -720 Descending Albuquerque Center
05:43PM 33.3292 -113.6797 96° East 399 459 23,600 -1,380 Descending Albuquerque Center
05:44PM 33.3150 -113.5158 96° East 410 472 21,800 -1,980 Descending Albuquerque Center
05:45PM 33.3031 -113.3803 96° East 412 474 19,600 -2,340 Descending Albuquerque Center
05:46PM 33.2919 -113.2506 96° East 398 458 17,100 -2,160 Descending Albuquerque Center
05:47PM 33.2825 -113.1258 95° East 383 441 15,200 -1,620 Descending Albuquerque Center
05:48PM 33.2739 -113.0058 95° East 368 423 13,800 -1,620 Descending Albuquerque Center
05:49PM 33.2681 -112.8903 93° East 354 407 11,900 -1,380 Descending Albuquerque Center
05:51PM 33.2675 -112.7889 90° East 318 366 11,000 -540 Descending Albuquerque Center
05:52PM 33.2742 -112.6931 85° East 295 339 10,900 -480 Descending Albuquerque Center
05:53PM 33.2328 -112.5872 115° Southeast 299 344 10,100 -480 Descending Albuquerque Center
05:54PM 33.1986 -112.5094 118° Southeast 292 336 10,000 -540 Descending Albuquerque Center
05:55PM 33.1633 -112.4181 115° Southeast 306 352 9,000 -540 Descending Albuquerque Center
05:56PM 33.1517 -112.3253 99° East 289 333 9,000 -660 Level Albuquerque Center
05:57PM 33.1358 -112.2094 99° East 296 341 7,700 -1,380 Descending Albuquerque Center
05:58PM 33.1253 -112.1206 98° East 277 319 6,200 -1,320 Descending Albuquerque Center
05:59PM 33.1131 -112.0306 99° East 276 318 5,100 -600 Descending Albuquerque Center
06:00PM 33.1219 -111.9478 83° East 256 295 5,000 -60 Descending Albuquerque Center
06:01PM 33.1350 -111.8664 79° East 252 290 5,000  Level Albuquerque Center
06:02PM 33.1467 -111.7928 79° East 232 267 5,000 -300 Level Albuquerque Center
06:03PM 33.1719 -111.7081 70° East 229 264 4,400 -780 Descending Albuquerque Center
06:04PM 33.2011 -111.6486 60° Northeast 211 243 3,400 -900 Descending Albuquerque Center
06:05PM 33.2428 -111.6161 33° Northeast 183 211 2,600 -840 Descending Albuquerque Center
06:06PM 33.2822 -111.6294 344° North 150 173 1,800 -660 Descending Albuquerque Center
06:07PM 33.3092 -111.6597 317° Northwest 126 145 1,300 -540 Descending Albuquerque Center